sensor_id;sensor_type;location;lat;lon;timestamp;pressure;altitude;pressure_sealevel;temperature;humidity
45129;BME280;35512;56.312;101.728;2023-03-21T00:01:59;97393.91;;;-15.75;49.73
45129;BME280;35512;56.312;101.728;2023-03-21T00:04:28;97393.63;;;-15.57;49.81
45129;BME280;35512;56.312;101.728;2023-03-21T00:07:11;97393.16;;;-15.38;49.69
45129;BME280;35512;56.312;101.728;2023-03-21T00:09:40;97389.44;;;-15.20;49.87
45129;BME280;35512;56.312;101.728;2023-03-21T00:12:09;97394.31;;;-15.02;49.82
45129;BME280;35512;56.312;101.728;2023-03-21T00:14:39;97390.28;;;-14.82;49.74
45129;BME280;35512;56.312;101.728;2023-03-21T00:17:08;97393.09;;;-14.62;49.59
45129;BME280;35512;56.312;101.728;2023-03-21T00:19:38;97396.16;;;-14.43;49.52
45129;BME280;35512;56.312;101.728;2023-03-21T00:22:08;97401.84;;;-14.18;49.57
45129;BME280;35512;56.312;101.728;2023-03-21T00:24:37;97407.00;;;-13.88;49.34
45129;BME280;35512;56.312;101.728;2023-03-21T00:27:06;97410.56;;;-13.59;49.26
45129;BME280;35512;56.312;101.728;2023-03-21T00:29:55;97405.56;;;-13.32;49.00
45129;BME280;35512;56.312;101.728;2023-03-21T00:32:25;97402.41;;;-13.06;48.98
45129;BME280;35512;56.312;101.728;2023-03-21T00:34:54;97406.78;;;-12.85;48.61
45129;BME280;35512;56.312;101.728;2023-03-21T00:37:44;97403.91;;;-12.68;48.46
45129;BME280;35512;56.312;101.728;2023-03-21T00:40:13;97412.63;;;-12.48;48.42
45129;BME280;35512;56.312;101.728;2023-03-21T00:42:56;97412.31;;;-12.31;48.62
45129;BME280;35512;56.312;101.728;2023-03-21T00:45:26;97415.47;;;-12.08;48.80
45129;BME280;35512;56.312;101.728;2023-03-21T00:47:55;97419.72;;;-11.86;48.51
45129;BME280;35512;56.312;101.728;2023-03-21T00:50:25;97415.41;;;-11.66;48.53
45129;BME280;35512;56.312;101.728;2023-03-21T00:52:54;97417.66;;;-11.43;47.99
45129;BME280;35512;56.312;101.728;2023-03-21T00:55:24;97414.72;;;-10.59;47.38
45129;BME280;35512;56.312;101.728;2023-03-21T00:57:54;97413.28;;;-9.31;46.07
45129;BME280;35512;56.312;101.728;2023-03-21T01:00:29;97412.94;;;-7.96;45.92
45129;BME280;35512;56.312;101.728;2023-03-21T01:03:04;97412.47;;;-6.84;45.52
45129;BME280;35512;56.312;101.728;2023-03-21T01:05:50;97425.03;;;-5.79;46.06
45129;BME280;35512;56.312;101.728;2023-03-21T01:08:35;97429.38;;;-4.69;46.28
45129;BME280;35512;56.312;101.728;2023-03-21T01:11:24;97430.72;;;-3.77;46.15
45129;BME280;35512;56.312;101.728;2023-03-21T01:13:54;97437.66;;;-2.99;46.00
45129;BME280;35512;56.312;101.728;2023-03-21T01:16:42;97434.66;;;-2.15;45.77
45129;BME280;35512;56.312;101.728;2023-03-21T01:19:14;97437.66;;;-1.54;44.73
45129;BME280;35512;56.312;101.728;2023-03-21T01:21:54;97437.25;;;-1.04;44.80
45129;BME280;35512;56.312;101.728;2023-03-21T01:24:24;97445.31;;;-0.53;43.52
45129;BME280;35512;56.312;101.728;2023-03-21T01:26:53;97448.22;;;-0.18;43.20
45129;BME280;35512;56.312;101.728;2023-03-21T01:29:22;97442.03;;;0.28;43.30
45129;BME280;35512;56.312;101.728;2023-03-21T01:31:51;97450.03;;;0.83;42.62
45129;BME280;35512;56.312;101.728;2023-03-21T01:34:20;97459.97;;;1.22;42.48
45129;BME280;35512;56.312;101.728;2023-03-21T01:36:49;97458.91;;;1.58;42.02
45129;BME280;35512;56.312;101.728;2023-03-21T01:39:20;97467.97;;;1.91;40.67
45129;BME280;35512;56.312;101.728;2023-03-21T01:41:50;97465.63;;;2.14;40.36
45129;BME280;35512;56.312;101.728;2023-03-21T01:44:25;97465.94;;;2.36;40.07
45129;BME280;35512;56.312;101.728;2023-03-21T01:46:54;97476.03;;;2.64;39.67
45129;BME280;35512;56.312;101.728;2023-03-21T01:50:00;97470.50;;;3.03;39.71
45129;BME280;35512;56.312;101.728;2023-03-21T01:52:43;97479.88;;;3.39;38.85
45129;BME280;35512;56.312;101.728;2023-03-21T01:55:17;97479.00;;;3.82;38.82
45129;BME280;35512;56.312;101.728;2023-03-21T01:58:19;97469.13;;;3.96;36.67
45129;BME280;35512;56.312;101.728;2023-03-21T02:01:26;97481.06;;;4.32;36.89
45129;BME280;35512;56.312;101.728;2023-03-21T02:03:57;97471.88;;;4.66;36.78
45129;BME280;35512;56.312;101.728;2023-03-21T02:09:25;97484.66;;;4.97;35.57
45129;BME280;35512;56.312;101.728;2023-03-21T02:11:55;97485.22;;;5.21;35.10
45129;BME280;35512;56.312;101.728;2023-03-21T02:14:32;97480.34;;;5.60;35.27
45129;BME280;35512;56.312;101.728;2023-03-21T02:29:00;97496.22;;;6.47;32.52
45129;BME280;35512;56.312;101.728;2023-03-21T02:38:12;97506.78;;;4.14;31.70
45129;BME280;35512;56.312;101.728;2023-03-21T02:43:30;97497.69;;;5.40;31.63
45129;BME280;35512;56.312;101.728;2023-03-21T02:46:11;97486.78;;;4.11;31.07
45129;BME280;35512;56.312;101.728;2023-03-21T02:49:10;97492.03;;;3.31;31.86
45129;BME280;35512;56.312;101.728;2023-03-21T02:51:43;97500.94;;;3.41;31.68
45129;BME280;35512;56.312;101.728;2023-03-21T02:54:17;97491.56;;;2.81;32.19
45129;BME280;35512;56.312;101.728;2023-03-21T02:57:07;97495.69;;;4.06;32.05
45129;BME280;35512;56.312;101.728;2023-03-21T02:59:37;97483.81;;;5.83;31.20
45129;BME280;35512;56.312;101.728;2023-03-21T03:02:27;97494.44;;;7.40;30.25
45129;BME280;35512;56.312;101.728;2023-03-21T03:04:57;97475.00;;;8.43;29.92
45129;BME280;35512;56.312;101.728;2023-03-21T03:11:07;97480.97;;;8.02;27.90
45129;BME280;35512;56.312;101.728;2023-03-21T03:13:56;97480.94;;;5.20;29.66
45129;BME280;35512;56.312;101.728;2023-03-21T03:17:25;97484.28;;;6.62;29.99
45129;BME280;35512;56.312;101.728;2023-03-21T03:25:19;97494.13;;;5.67;27.03
45129;BME280;35512;56.312;101.728;2023-03-21T03:28:07;97491.09;;;3.93;28.51
45129;BME280;35512;56.312;101.728;2023-03-21T03:30:37;97483.19;;;3.31;28.99
45129;BME280;35512;56.312;101.728;2023-03-21T03:33:20;97492.03;;;1.41;29.15
45129;BME280;35512;56.312;101.728;2023-03-21T03:35:53;97483.56;;;1.39;30.01
45129;BME280;35512;56.312;101.728;2023-03-21T03:38:35;97484.78;;;3.51;29.82
45129;BME280;35512;56.312;101.728;2023-03-21T03:41:17;97481.19;;;4.68;28.22
45129;BME280;35512;56.312;101.728;2023-03-21T03:43:55;97478.44;;;6.60;27.91
45129;BME280;35512;56.312;101.728;2023-03-21T03:46:31;97475.94;;;7.48;27.79
45129;BME280;35512;56.312;101.728;2023-03-21T03:49:04;97486.50;;;6.69;26.15
45129;BME280;35512;56.312;101.728;2023-03-21T03:54:47;97480.78;;;1.10;28.00
45129;BME280;35512;56.312;101.728;2023-03-21T03:57:18;97479.72;;;0.35;28.59
45129;BME280;35512;56.312;101.728;2023-03-21T03:59:47;97483.97;;;0.41;28.78
45129;BME280;35512;56.312;101.728;2023-03-21T04:02:19;97475.88;;;2.55;28.59
45129;BME280;35512;56.312;101.728;2023-03-21T04:04:49;97465.63;;;4.29;27.58
45129;BME280;35512;56.312;101.728;2023-03-21T04:07:21;97477.28;;;5.53;26.79
45129;BME280;35512;56.312;101.728;2023-03-21T04:09:53;97467.19;;;6.98;26.29
45129;BME280;35512;56.312;101.728;2023-03-21T04:12:23;97462.59;;;6.50;25.50
45129;BME280;35512;56.312;101.728;2023-03-21T04:15:05;97466.13;;;6.59;26.88
45129;BME280;35512;56.312;101.728;2023-03-21T04:17:45;97461.72;;;8.47;26.31
45129;BME280;35512;56.312;101.728;2023-03-21T04:20:14;97459.59;;;9.97;25.04
45129;BME280;35512;56.312;101.728;2023-03-21T04:23:03;97457.31;;;10.20;24.44
45129;BME280;35512;56.312;101.728;2023-03-21T04:25:34;97468.09;;;10.78;23.27
45129;BME280;35512;56.312;101.728;2023-03-21T04:28:07;97470.75;;;10.54;23.60
45129;BME280;35512;56.312;101.728;2023-03-21T04:30:43;97467.06;;;11.61;23.62
45129;BME280;35512;56.312;101.728;2023-03-21T04:33:30;97465.44;;;12.29;23.47
45129;BME280;35512;56.312;101.728;2023-03-21T04:35:59;97462.47;;;12.34;22.79
45129;BME280;35512;56.312;101.728;2023-03-21T04:38:31;97464.41;;;12.65;22.37
45129;BME280;35512;56.312;101.728;2023-03-21T04:41:03;97460.00;;;12.93;22.74
45129;BME280;35512;56.312;101.728;2023-03-21T04:43:32;97455.28;;;13.80;22.83
45129;BME280;35512;56.312;101.728;2023-03-21T04:46:01;97453.50;;;13.13;22.43
45129;BME280;35512;56.312;101.728;2023-03-21T04:48:33;97462.50;;;11.37;23.30
45129;BME280;35512;56.312;101.728;2023-03-21T04:51:02;97460.56;;;9.59;23.47
45129;BME280;35512;56.312;101.728;2023-03-21T04:53:31;97464.91;;;6.34;24.12
45129;BME280;35512;56.312;101.728;2023-03-21T04:56:01;97461.25;;;4.05;25.55
45129;BME280;35512;56.312;101.728;2023-03-21T04:58:30;97447.09;;;5.84;26.15
45129;BME280;35512;56.312;101.728;2023-03-21T05:00:59;97440.53;;;8.28;24.42
45129;BME280;35512;56.312;101.728;2023-03-21T05:03:30;97439.03;;;10.05;23.67
45129;BME280;35512;56.312;101.728;2023-03-21T05:06:02;97436.31;;;11.53;22.96
45129;BME280;35512;56.312;101.728;2023-03-21T05:08:31;97436.16;;;12.34;22.26
45129;BME280;35512;56.312;101.728;2023-03-21T05:11:01;97439.91;;;13.29;21.81
45129;BME280;35512;56.312;101.728;2023-03-21T05:13:30;97437.00;;;13.77;21.09
45129;BME280;35512;56.312;101.728;2023-03-21T05:15:59;97424.78;;;13.48;21.42
45129;BME280;35512;56.312;101.728;2023-03-21T05:18:28;97432.63;;;13.92;21.50
45129;BME280;35512;56.312;101.728;2023-03-21T05:21:10;97428.81;;;14.63;20.98
45129;BME280;35512;56.312;101.728;2023-03-21T05:23:42;97423.41;;;15.20;20.94
45129;BME280;35512;56.312;101.728;2023-03-21T05:26:11;97427.78;;;14.98;20.63
45129;BME280;35512;56.312;101.728;2023-03-21T05:28:51;97415.94;;;13.51;21.55
45129;BME280;35512;56.312;101.728;2023-03-21T05:31:21;97421.72;;;11.86;21.70
45129;BME280;35512;56.312;101.728;2023-03-21T05:33:56;97404.16;;;9.11;22.22
45129;BME280;35512;56.312;101.728;2023-03-21T05:36:27;97422.47;;;6.93;22.59
45129;BME280;35512;56.312;101.728;2023-03-21T05:38:56;97403.00;;;7.84;22.81
45129;BME280;35512;56.312;101.728;2023-03-21T05:41:25;97410.78;;;9.56;21.84
45129;BME280;35512;56.312;101.728;2023-03-21T05:43:54;97392.09;;;10.92;21.69
45129;BME280;35512;56.312;101.728;2023-03-21T05:46:24;97374.03;;;12.42;20.85
45129;BME280;35512;56.312;101.728;2023-03-21T05:48:54;97409.22;;;13.84;20.72
45129;BME280;35512;56.312;101.728;2023-03-21T05:51:26;97394.38;;;14.70;19.50
45129;BME280;35512;56.312;101.728;2023-03-21T05:53:55;97405.03;;;14.83;19.59
45129;BME280;35512;56.312;101.728;2023-03-21T05:56:25;97393.25;;;15.02;18.94
45129;BME280;35512;56.312;101.728;2023-03-21T05:58:58;97391.81;;;15.08;18.96
45129;BME280;35512;56.312;101.728;2023-03-21T06:01:29;97385.38;;;15.24;18.59
45129;BME280;35512;56.312;101.728;2023-03-21T06:04:10;97385.06;;;14.98;18.44
45129;BME280;35512;56.312;101.728;2023-03-21T06:06:40;97388.84;;;14.17;17.11
45129;BME280;35512;56.312;101.728;2023-03-21T06:09:09;97382.50;;;13.66;18.50
45129;BME280;35512;56.312;101.728;2023-03-21T06:11:45;97386.97;;;13.98;18.56
45129;BME280;35512;56.312;101.728;2023-03-21T06:14:33;97373.06;;;14.49;18.48
45129;BME280;35512;56.312;101.728;2023-03-21T06:17:15;97376.25;;;15.09;18.65
45129;BME280;35512;56.312;101.728;2023-03-21T06:20:09;97371.53;;;15.70;18.12
45129;BME280;35512;56.312;101.728;2023-03-21T06:22:52;97366.66;;;15.18;17.57
45129;BME280;35512;56.312;101.728;2023-03-21T06:25:21;97383.41;;;14.63;17.66
45129;BME280;35512;56.312;101.728;2023-03-21T06:27:50;97374.50;;;14.66;17.40
45129;BME280;35512;56.312;101.728;2023-03-21T06:30:20;97372.94;;;14.19;17.32
45129;BME280;35512;56.312;101.728;2023-03-21T06:33:12;97376.88;;;14.22;17.44
45129;BME280;35512;56.312;101.728;2023-03-21T06:35:42;97367.00;;;14.60;17.40
45129;BME280;35512;56.312;101.728;2023-03-21T06:38:11;97374.81;;;14.88;17.27
45129;BME280;35512;56.312;101.728;2023-03-21T06:40:40;97370.09;;;15.46;17.11
45129;BME280;35512;56.312;101.728;2023-03-21T06:43:09;97371.59;;;15.40;16.99
45129;BME280;35512;56.312;101.728;2023-03-21T06:45:39;97356.53;;;15.15;17.02
45129;BME280;35512;56.312;101.728;2023-03-21T06:48:10;97357.94;;;14.75;16.76
45129;BME280;35512;56.312;101.728;2023-03-21T06:50:57;97366.53;;;14.54;17.12
45129;BME280;35512;56.312;101.728;2023-03-21T06:53:29;97365.28;;;14.25;16.66
45129;BME280;35512;56.312;101.728;2023-03-21T06:56:20;97355.88;;;13.95;16.37
45129;BME280;35512;56.312;101.728;2023-03-21T06:58:49;97357.25;;;13.62;16.21
45129;BME280;35512;56.312;101.728;2023-03-21T07:01:38;97332.03;;;13.23;16.26
45129;BME280;35512;56.312;101.728;2023-03-21T07:04:10;97348.94;;;13.16;16.09
45129;BME280;35512;56.312;101.728;2023-03-21T07:06:39;97355.38;;;13.47;15.94
45129;BME280;35512;56.312;101.728;2023-03-21T07:09:08;97361.13;;;14.08;16.17
45129;BME280;35512;56.312;101.728;2023-03-21T07:11:39;97346.34;;;14.55;16.11
45129;BME280;35512;56.312;101.728;2023-03-21T07:14:09;97354.94;;;14.84;16.00
45129;BME280;35512;56.312;101.728;2023-03-21T07:16:39;97351.53;;;15.21;16.03
45129;BME280;35512;56.312;101.728;2023-03-21T07:19:08;97359.56;;;15.10;15.91
45129;BME280;35512;56.312;101.728;2023-03-21T07:21:38;97349.91;;;14.86;16.01
45129;BME280;35512;56.312;101.728;2023-03-21T07:24:07;97352.69;;;14.90;15.45
45129;BME280;35512;56.312;101.728;2023-03-21T07:26:37;97353.53;;;14.67;16.00
45129;BME280;35512;56.312;101.728;2023-03-21T07:29:06;97344.53;;;15.20;15.87
45129;BME280;35512;56.312;101.728;2023-03-21T07:31:36;97345.22;;;15.81;15.47
45129;BME280;35512;56.312;101.728;2023-03-21T07:34:07;97342.22;;;15.22;14.58
45129;BME280;35512;56.312;101.728;2023-03-21T07:36:36;97346.09;;;14.37;15.17
45129;BME280;35512;56.312;101.728;2023-03-21T07:39:06;97352.50;;;14.25;14.93
45129;BME280;35512;56.312;101.728;2023-03-21T07:41:35;97356.44;;;14.05;15.57
45129;BME280;35512;56.312;101.728;2023-03-21T07:44:18;97354.19;;;13.87;15.11
45129;BME280;35512;56.312;101.728;2023-03-21T07:46:48;97344.00;;;14.03;15.35
45129;BME280;35512;56.312;101.728;2023-03-21T07:49:19;97342.03;;;13.81;15.19
45129;BME280;35512;56.312;101.728;2023-03-21T07:51:47;97351.41;;;13.83;15.35
45129;BME280;35512;56.312;101.728;2023-03-21T07:54:16;97336.78;;;13.68;15.22
45129;BME280;35512;56.312;101.728;2023-03-21T07:56:48;97349.81;;;13.82;15.31
45129;BME280;35512;56.312;101.728;2023-03-21T07:59:17;97332.19;;;13.10;14.99
45129;BME280;35512;56.312;101.728;2023-03-21T08:01:46;97331.84;;;12.41;14.99
45129;BME280;35512;56.312;101.728;2023-03-21T08:04:15;97323.81;;;11.96;14.81
45129;BME280;35512;56.312;101.728;2023-03-21T08:06:44;97337.84;;;11.70;15.49
45129;BME280;35512;56.312;101.728;2023-03-21T08:09:13;97347.78;;;11.82;15.38
45129;BME280;35512;56.312;101.728;2023-03-21T08:11:42;97345.34;;;11.93;15.44
45129;BME280;35512;56.312;101.728;2023-03-21T08:14:11;97340.81;;;10.96;15.82
45129;BME280;35512;56.312;101.728;2023-03-21T08:16:39;97353.09;;;8.43;16.04
45129;BME280;35512;56.312;101.728;2023-03-21T08:19:08;97340.53;;;7.70;16.84
45129;BME280;35512;56.312;101.728;2023-03-21T08:21:37;97346.63;;;8.65;16.56
45129;BME280;35512;56.312;101.728;2023-03-21T08:24:06;97345.59;;;9.54;16.01
45129;BME280;35512;56.312;101.728;2023-03-21T08:26:35;97338.03;;;9.81;16.21
45129;BME280;35512;56.312;101.728;2023-03-21T08:29:05;97345.28;;;10.63;15.96
45129;BME280;35512;56.312;101.728;2023-03-21T08:31:34;97329.13;;;10.92;15.43
45129;BME280;35512;56.312;101.728;2023-03-21T08:34:03;97326.94;;;10.32;15.59
45129;BME280;35512;56.312;101.728;2023-03-21T08:36:34;97333.75;;;9.34;16.03
45129;BME280;35512;56.312;101.728;2023-03-21T08:39:05;97336.59;;;8.15;15.31
45129;BME280;35512;56.312;101.728;2023-03-21T08:41:35;97344.72;;;6.53;16.08
45129;BME280;35512;56.312;101.728;2023-03-21T08:44:05;97341.72;;;6.06;16.03
45129;BME280;35512;56.312;101.728;2023-03-21T08:46:34;97340.78;;;4.66;15.65
45129;BME280;35512;56.312;101.728;2023-03-21T08:49:03;97337.72;;;2.95;16.89
45129;BME280;35512;56.312;101.728;2023-03-21T08:51:31;97325.22;;;1.37;17.38
45129;BME280;35512;56.312;101.728;2023-03-21T08:54:01;97327.00;;;0.22;17.76
45129;BME280;35512;56.312;101.728;2023-03-21T08:56:29;97320.34;;;-0.66;17.88
45129;BME280;35512;56.312;101.728;2023-03-21T08:58:58;97331.69;;;-1.54;18.95
45129;BME280;35512;56.312;101.728;2023-03-21T09:01:30;97325.88;;;-2.19;18.94
45129;BME280;35512;56.312;101.728;2023-03-21T09:04:00;97327.47;;;-2.61;18.71
45129;BME280;35512;56.312;101.728;2023-03-21T09:06:29;97328.78;;;-3.01;18.78
45129;BME280;35512;56.312;101.728;2023-03-21T09:08:58;97338.72;;;-3.41;19.05
45129;BME280;35512;56.312;101.728;2023-03-21T09:11:28;97339.59;;;-3.84;19.15
45129;BME280;35512;56.312;101.728;2023-03-21T09:13:57;97333.00;;;-4.04;19.50
45129;BME280;35512;56.312;101.728;2023-03-21T09:16:25;97340.31;;;-4.11;18.99
45129;BME280;35512;56.312;101.728;2023-03-21T09:18:54;97331.09;;;-4.31;19.54
45129;BME280;35512;56.312;101.728;2023-03-21T09:21:25;97341.66;;;-4.48;19.40
45129;BME280;35512;56.312;101.728;2023-03-21T09:23:55;97337.69;;;-4.84;19.79
45129;BME280;35512;56.312;101.728;2023-03-21T09:26:26;97342.66;;;-5.05;19.75
45129;BME280;35512;56.312;101.728;2023-03-21T09:28:56;97343.03;;;-5.13;19.76
45129;BME280;35512;56.312;101.728;2023-03-21T09:31:26;97341.78;;;-5.11;19.80
45129;BME280;35512;56.312;101.728;2023-03-21T09:33:55;97349.34;;;-5.14;19.90
45129;BME280;35512;56.312;101.728;2023-03-21T09:36:25;97349.19;;;-5.24;19.81
45129;BME280;35512;56.312;101.728;2023-03-21T09:38:54;97339.72;;;-5.37;20.02
45129;BME280;35512;56.312;101.728;2023-03-21T09:44:26;97351.31;;;-5.38;20.09
45129;BME280;35512;56.312;101.728;2023-03-21T09:49:44;97350.63;;;-5.63;20.27
45129;BME280;35512;56.312;101.728;2023-03-21T09:52:56;97354.91;;;-5.85;20.62
45129;BME280;35512;56.312;101.728;2023-03-21T09:55:29;97363.56;;;-6.02;20.53
45129;BME280;35512;56.312;101.728;2023-03-21T09:58:04;97362.19;;;-6.04;20.83
45129;BME280;35512;56.312;101.728;2023-03-21T10:00:39;97360.94;;;-6.14;21.05
45129;BME280;35512;56.312;101.728;2023-03-21T10:03:20;97364.75;;;-6.21;21.13
45129;BME280;35512;56.312;101.728;2023-03-21T10:05:55;97358.91;;;-6.23;21.27
45129;BME280;35512;56.312;101.728;2023-03-21T10:08:32;97361.53;;;-6.23;20.95
45129;BME280;35512;56.312;101.728;2023-03-21T10:14:06;97366.47;;;-6.27;21.46
45129;BME280;35512;56.312;101.728;2023-03-21T10:16:43;97365.78;;;-6.34;21.23
45129;BME280;35512;56.312;101.728;2023-03-21T10:19:17;97370.91;;;-6.39;21.69
45129;BME280;35512;56.312;101.728;2023-03-21T10:21:48;97360.06;;;-6.55;21.51
45129;BME280;35512;56.312;101.728;2023-03-21T10:24:33;97375.84;;;-6.55;21.54
45129;BME280;35512;56.312;101.728;2023-03-21T10:27:03;97368.50;;;-6.76;22.17
45129;BME280;35512;56.312;101.728;2023-03-21T10:29:42;97363.38;;;-6.95;22.40
45129;BME280;35512;56.312;101.728;2023-03-21T10:32:14;97376.84;;;-7.03;22.24
45129;BME280;35512;56.312;101.728;2023-03-21T10:34:49;97373.81;;;-7.19;22.37
45129;BME280;35512;56.312;101.728;2023-03-21T10:37:19;97367.38;;;-7.35;22.26
45129;BME280;35512;56.312;101.728;2023-03-21T10:39:49;97377.75;;;-7.40;22.29
45129;BME280;35512;56.312;101.728;2023-03-21T10:42:25;97382.94;;;-7.52;22.26
45129;BME280;35512;56.312;101.728;2023-03-21T10:44:56;97375.63;;;-7.61;22.53
45129;BME280;35512;56.312;101.728;2023-03-21T10:47:32;97373.59;;;-7.78;22.85
45129;BME280;35512;56.312;101.728;2023-03-21T10:50:10;97381.03;;;-7.93;22.73
45129;BME280;35512;56.312;101.728;2023-03-21T10:52:46;97392.03;;;-8.03;22.65
45129;BME280;35512;56.312;101.728;2023-03-21T10:55:29;97399.41;;;-8.12;22.66
45129;BME280;35512;56.312;101.728;2023-03-21T10:58:06;97396.91;;;-8.25;22.77
45129;BME280;35512;56.312;101.728;2023-03-21T11:00:39;97397.19;;;-8.52;23.18
45129;BME280;35512;56.312;101.728;2023-03-21T11:03:29;97401.28;;;-8.81;23.19
45129;BME280;35512;56.312;101.728;2023-03-21T11:06:04;97399.81;;;-9.03;23.32
45129;BME280;35512;56.312;101.728;2023-03-21T11:11:37;97400.25;;;-9.38;23.57
45129;BME280;35512;56.312;101.728;2023-03-21T11:14:22;97397.91;;;-9.53;23.96
45129;BME280;35512;56.312;101.728;2023-03-21T11:16:52;97407.22;;;-9.63;24.22
45129;BME280;35512;56.312;101.728;2023-03-21T11:19:32;97411.69;;;-9.77;24.32
45129;BME280;35512;56.312;101.728;2023-03-21T11:22:07;97415.34;;;-9.85;23.90
45129;BME280;35512;56.312;101.728;2023-03-21T11:24:36;97410.94;;;-9.91;24.56
45129;BME280;35512;56.312;101.728;2023-03-21T11:27:06;97414.97;;;-10.02;24.52
45129;BME280;35512;56.312;101.728;2023-03-21T11:29:39;97414.44;;;-10.17;24.77
45129;BME280;35512;56.312;101.728;2023-03-21T11:32:32;97420.09;;;-10.27;24.62
45129;BME280;35512;56.312;101.728;2023-03-21T11:35:17;97408.50;;;-10.45;24.70
45129;BME280;35512;56.312;101.728;2023-03-21T11:37:53;97415.31;;;-10.50;24.82
45129;BME280;35512;56.312;101.728;2023-03-21T11:40:36;97426.78;;;-10.51;24.96
45129;BME280;35512;56.312;101.728;2023-03-21T11:48:25;97429.00;;;-10.75;24.98
45129;BME280;35512;56.312;101.728;2023-03-21T11:56:50;97429.41;;;-10.85;25.23
45129;BME280;35512;56.312;101.728;2023-03-21T11:59:32;97430.81;;;-10.96;25.00
45129;BME280;35512;56.312;101.728;2023-03-21T12:02:33;97435.19;;;-11.03;25.42
45129;BME280;35512;56.312;101.728;2023-03-21T12:05:35;97445.03;;;-11.12;25.21
45129;BME280;35512;56.312;101.728;2023-03-21T12:13:38;97448.81;;;-11.21;25.03
45129;BME280;35512;56.312;101.728;2023-03-21T12:16:57;97447.19;;;-11.29;24.63
45129;BME280;35512;56.312;101.728;2023-03-21T12:19:54;97445.38;;;-11.35;25.42
45129;BME280;35512;56.312;101.728;2023-03-21T12:22:57;97445.56;;;-11.36;25.20
45129;BME280;35512;56.312;101.728;2023-03-21T12:25:38;97439.34;;;-11.42;25.64
45129;BME280;35512;56.312;101.728;2023-03-21T12:28:15;97450.38;;;-11.33;25.45
45129;BME280;35512;56.312;101.728;2023-03-21T12:31:20;97454.00;;;-11.34;25.23
45129;BME280;35512;56.312;101.728;2023-03-21T12:36:41;97449.56;;;-11.47;25.43
45129;BME280;35512;56.312;101.728;2023-03-21T12:39:29;97454.75;;;-11.54;25.56
45129;BME280;35512;56.312;101.728;2023-03-21T12:42:35;97453.50;;;-11.65;25.71
45129;BME280;35512;56.312;101.728;2023-03-21T12:45:22;97450.06;;;-11.72;25.59
45129;BME280;35512;56.312;101.728;2023-03-21T12:50:39;97454.25;;;-11.78;25.88
45129;BME280;35512;56.312;101.728;2023-03-21T12:56:17;97461.81;;;-11.96;25.88
45129;BME280;35512;56.312;101.728;2023-03-21T12:58:56;97469.16;;;-12.07;26.14
45129;BME280;35512;56.312;101.728;2023-03-21T13:01:27;97466.91;;;-12.16;26.21
45129;BME280;35512;56.312;101.728;2023-03-21T13:06:48;97476.22;;;-12.29;25.97
45129;BME280;35512;56.312;101.728;2023-03-21T13:09:28;97480.25;;;-12.26;26.15
45129;BME280;35512;56.312;101.728;2023-03-21T13:20:49;97481.97;;;-12.40;26.31
45129;BME280;35512;56.312;101.728;2023-03-21T13:23:32;97477.75;;;-12.41;26.41
45129;BME280;35512;56.312;101.728;2023-03-21T13:26:01;97480.13;;;-12.46;26.23
45129;BME280;35512;56.312;101.728;2023-03-21T13:28:33;97488.75;;;-12.46;26.41
45129;BME280;35512;56.312;101.728;2023-03-21T13:31:19;97485.31;;;-12.46;26.32
45129;BME280;35512;56.312;101.728;2023-03-21T13:33:49;97483.91;;;-12.49;26.34
45129;BME280;35512;56.312;101.728;2023-03-21T13:36:29;97484.84;;;-12.56;26.27
45129;BME280;35512;56.312;101.728;2023-03-21T13:39:02;97477.41;;;-12.60;26.31
45129;BME280;35512;56.312;101.728;2023-03-21T13:41:37;97483.19;;;-12.64;26.74
45129;BME280;35512;56.312;101.728;2023-03-21T13:47:36;97482.13;;;-12.70;26.68
45129;BME280;35512;56.312;101.728;2023-03-21T13:50:21;97486.34;;;-12.69;26.63
45129;BME280;35512;56.312;101.728;2023-03-21T13:55:46;97502.25;;;-12.79;26.70
45129;BME280;35512;56.312;101.728;2023-03-21T13:58:35;97504.00;;;-12.86;26.78
45129;BME280;35512;56.312;101.728;2023-03-21T14:01:35;97501.16;;;-12.91;26.74
45129;BME280;35512;56.312;101.728;2023-03-21T14:04:15;97502.28;;;-13.00;26.89
45129;BME280;35512;56.312;101.728;2023-03-21T14:09:34;97507.59;;;-13.09;26.97
45129;BME280;35512;56.312;101.728;2023-03-21T14:12:07;97511.19;;;-13.10;26.93
45129;BME280;35512;56.312;101.728;2023-03-21T14:15:24;97510.19;;;-13.09;26.96
45129;BME280;35512;56.312;101.728;2023-03-21T14:17:58;97515.22;;;-13.07;26.91
45129;BME280;35512;56.312;101.728;2023-03-21T14:20:43;97510.09;;;-13.00;27.14
45129;BME280;35512;56.312;101.728;2023-03-21T14:23:15;97510.09;;;-13.00;27.14
45129;BME280;35512;56.312;101.728;2023-03-21T14:25:46;97515.91;;;-12.98;26.97
45129;BME280;35512;56.312;101.728;2023-03-21T14:28:17;97516.88;;;-12.99;26.98
45129;BME280;35512;56.312;101.728;2023-03-21T14:30:53;97521.66;;;-13.03;27.11
45129;BME280;35512;56.312;101.728;2023-03-21T14:33:38;97511.19;;;-13.10;27.10
45129;BME280;35512;56.312;101.728;2023-03-21T14:36:37;97519.78;;;-13.09;27.22
45129;BME280;35512;56.312;101.728;2023-03-21T14:39:20;97515.41;;;-13.09;27.35
45129;BME280;35512;56.312;101.728;2023-03-21T14:42:00;97525.44;;;-13.05;27.26
45129;BME280;35512;56.312;101.728;2023-03-21T14:47:24;97522.00;;;-13.06;27.53
45129;BME280;35512;56.312;101.728;2023-03-21T14:49:54;97529.19;;;-13.08;27.29
45129;BME280;35512;56.312;101.728;2023-03-21T14:52:30;97522.75;;;-13.12;27.33
45129;BME280;35512;56.312;101.728;2023-03-21T14:55:01;97526.34;;;-13.13;27.22
45129;BME280;35512;56.312;101.728;2023-03-21T14:57:32;97526.16;;;-13.12;27.18
45129;BME280;35512;56.312;101.728;2023-03-21T15:00:05;97530.00;;;-13.07;27.59